KMOR/MOR METAR and TAF weather

Enter ICAO airport designator
Station Type Date Time Source
KMOR METAR 2019/06/18 05:40 UTC NOAA

KMOR 180540Z AUTO 00000KT 10SM OVC050 20/20 A3004 RMK A01


Station Type Date Time Source
KMOR Decoded METAR 2019/06/18 05:40 UTC NOAA

Station name not available
Jun 18, 2019 - 01:40 AM EDT / 2019.06.18 0540 UTC
Wind: Calm:0
Visibility: 10 mile(s):0
Sky conditions: overcast
Temperature: 68 F (20 C)
Dew Point: 68 F (20 C)
Relative Humidity: 100%
Pressure (altimeter): 30.04 in. Hg (1017 hPa)
ob: KMOR 180540Z AUTO 00000KT 10SM OVC050 20/20 A3004 RMK A01
cycle: 5

Station Type Date Time Source
KMOR TAF UTC NOAA

Error!

Example: see airport list